Time;durP1;ratioP1;P1;durP2;ratioP2;P2;SDS_P1;SDS_P2;PMS_P1;PMS_P2;Temp;Humidity;BMP_temperature;BMP_pressure;BME280_temperature;BME280_humidity;BME280_pressure;Samples;Min_cycle;Max_cycle;Signal;HPM_P1;HPM_P2
2023/01/05 00:01:03;;;;;;;18.02;13.18;;;7.50;99.90;;;;;;6242233;22;20474;-80
2023/01/05 00:03:29;;;;;;;19.77;14.23;;;7.50;99.90;;;;;;6242367;23;20373;-81
2023/01/05 00:06:02;;;;;;;18.95;13.88;;;7.50;99.90;;;;;;6242555;22;19996;-80
2023/01/05 00:08:28;;;;;;;17.83;13.48;;;7.50;99.90;;;;;;6242739;22;20043;-80
2023/01/05 00:24:47;;;;;;;19.10;13.38;;;7.40;99.90;;;;;;6244289;22;20142;-81
2023/01/05 00:27:13;;;;;;;15.55;11.40;;;7.40;99.90;;;;;;6244149;23;20066;-80
2023/01/05 00:29:39;;;;;;;18.35;12.75;;;7.30;99.90;;;;;;6244150;22;20459;-81
2023/01/05 00:32:04;;;;;;;15.55;11.55;;;7.30;99.90;;;;;;6244271;23;20062;-81
2023/01/05 00:34:30;;;;;;;16.27;11.35;;;7.30;99.90;;;;;;6217248;23;20008;-80
2023/01/05 00:36:56;;;;;;;17.70;12.38;;;7.30;99.90;;;;;;6217357;23;20099;-80
2023/01/05 00:39:21;;;;;;;15.35;11.95;;;7.30;99.90;;;;;;6216950;23;20039;-81
2023/01/05 00:41:47;;;;;;;14.80;11.32;;;7.30;99.90;;;;;;6243897;22;20485;-81
2023/01/05 00:44:13;;;;;;;16.38;11.40;;;7.40;99.90;;;;;;6244064;22;20015;-80
2023/01/05 00:46:38;;;;;;;15.30;11.77;;;7.40;99.90;;;;;;6244169;23;20420;-80
2023/01/05 00:49:04;;;;;;;14.93;10.57;;;7.30;99.90;;;;;;6217249;23;20008;-80
2023/01/05 00:51:30;;;;;;;15.18;10.35;;;7.30;99.90;;;;;;6244066;22;19997;-80
2023/01/05 00:53:55;;;;;;;16.13;10.27;;;7.30;99.90;;;;;;6243741;22;20008;-80
2023/01/05 00:56:21;;;;;;;14.88;9.93;;;7.30;99.90;;;;;;6244103;22;20000;-80
2023/01/05 00:58:47;;;;;;;15.10;10.98;;;7.30;99.90;;;;;;6243922;23;19996;-80
2023/01/05 01:01:13;;;;;;;15.65;10.68;;;7.30;99.90;;;;;;6243985;22;20003;-80
2023/01/05 01:03:39;;;;;;;14.35;10.27;;;7.30;99.90;;;;;;6243770;22;20000;-80
2023/01/05 01:06:05;;;;;;;14.50;10.38;;;7.30;99.90;;;;;;6243888;22;20462;-80
2023/01/05 01:08:30;;;;;;;13.30;10.25;;;7.30;99.90;;;;;;6243900;23;19996;-80
2023/01/05 01:11:04;;;;;;;14.60;9.90;;;7.30;99.90;;;;;;6243551;22;20012;-80
2023/01/05 01:13:30;;;;;;;11.85;9.80;;;7.30;99.90;;;;;;6243603;23;20024;-80
2023/01/05 01:15:56;;;;;;;12.63;9.75;;;7.30;99.90;;;;;;6243959;22;20000;-80
2023/01/05 01:18:22;;;;;;;16.23;10.10;;;7.40;99.90;;;;;;6243729;22;20450;-80
2023/01/05 01:20:48;;;;;;;14.15;10.93;;;7.40;99.90;;;;;;6243641;23;20038;-80
2023/01/05 01:23:13;;;;;;;11.80;9.77;;;7.30;99.90;;;;;;6243662;23;20028;-80
2023/01/05 01:25:39;;;;;;;14.05;10.95;;;7.30;99.90;;;;;;6243683;23;19996;-80
2023/01/05 01:28:05;;;;;;;13.25;11.35;;;7.30;99.90;;;;;;6243417;22;20011;-80
2023/01/05 01:30:31;;;;;;;14.40;11.18;;;7.20;99.90;;;;;;6243488;22;20475;-80
2023/01/05 01:32:56;;;;;;;17.80;11.35;;;7.30;99.90;;;;;;6243497;23;20000;-80
2023/01/05 01:35:22;;;;;;;15.40;11.20;;;7.30;99.90;;;;;;6243580;23;20008;-80
2023/01/05 01:37:48;;;;;;;16.85;12.23;;;7.30;99.90;;;;;;6243817;22;20005;-80
2023/01/05 01:40:13;;;;;;;14.07;11.02;;;7.30;99.90;;;;;;6243319;22;20011;-80
2023/01/05 01:42:40;;;;;;;15.45;10.77;;;7.30;99.90;;;;;;6243357;22;20007;-81
2023/01/05 01:45:26;;;;;;;14.68;10.95;;;7.30;99.90;;;;;;6243659;22;20367;-80
2023/01/05 01:47:59;;;;;;;12.75;9.15;;;7.30;99.90;;;;;;6243080;23;20004;-81
2023/01/05 01:50:51;;;;;;;11.20;9.15;;;7.30;99.90;;;;;;6243398;22;20035;-80
2023/01/05 01:53:27;;;;;;;10.88;8.93;;;7.30;99.90;;;;;;6243367;22;20000;-80
2023/01/05 01:55:54;;;;;;;10.70;8.98;;;7.30;99.90;;;;;;6243254;22;20008;-80
2023/01/05 01:58:24;;;;;;;11.73;8.68;;;7.40;99.90;;;;;;6243383;22;20011;-81
2023/01/05 02:00:50;;;;;;;11.88;8.98;;;7.40;99.90;;;;;;6243386;23;20000;-80
2023/01/05 02:03:16;;;;;;;11.13;8.90;;;7.30;99.90;;;;;;6243325;23;20004;-80
2023/01/05 02:05:42;;;;;;;10.93;9.18;;;7.20;99.90;;;;;;6243415;23;20006;-80
2023/01/05 02:08:13;;;;;;;12.13;9.15;;;7.10;99.90;;;;;;6243248;22;20224;-80
2023/01/05 02:11:15;;;;;;;13.90;9.85;;;7.10;99.90;;;;;;6243136;23;20389;-80
2023/01/05 02:13:41;;;;;;;11.98;9.27;;;7.10;99.90;;;;;;6216255;23;20074;-80
2023/01/05 02:16:15;;;;;;;14.40;9.52;;;7.10;99.90;;;;;;6243211;22;20004;-80
2023/01/05 02:18:59;;;;;;;15.40;10.85;;;7.20;99.90;;;;;;6216253;23;20088;-80
2023/01/05 02:21:35;;;;;;;13.35;9.63;;;7.20;99.90;;;;;;6243267;22;20058;-80
2023/01/05 02:24:20;;;;;;;14.18;9.18;;;7.20;99.90;;;;;;6242779;22;20083;-80
2023/01/05 02:27:13;;;;;;;11.07;9.05;;;7.30;99.90;;;;;;6216564;23;20079;-80
2023/01/05 02:29:59;;;;;;;13.00;9.55;;;7.30;99.90;;;;;;6242922;22;20500;-81
2023/01/05 02:32:30;;;;;;;14.60;10.38;;;7.40;99.90;;;;;;6242924;22;20087;-80
2023/01/05 02:35:07;;;;;;;12.82;9.85;;;7.40;99.90;;;;;;6243114;22;20083;-81
2023/01/05 02:37:44;;;;;;;11.40;9.00;;;7.30;99.90;;;;;;6243090;22;20008;-81
2023/01/05 02:40:19;;;;;;;13.63;10.07;;;7.30;99.90;;;;;;6242989;23;20004;-81
2023/01/05 02:42:48;;;;;;;12.43;10.05;;;7.30;99.90;;;;;;6243197;23;20024;-81
2023/01/05 02:45:15;;;;;;;12.70;10.05;;;7.20;99.90;;;;;;6216305;23;20000;-81
2023/01/05 02:47:42;;;;;;;14.85;10.25;;;7.20;99.90;;;;;;6216106;23;20028;-81
2023/01/05 02:50:14;;;;;;;13.35;10.25;;;7.20;99.90;;;;;;6242985;23;20371;-81
2023/01/05 02:52:46;;;;;;;12.35;9.60;;;7.20;99.90;;;;;;6243119;22;20428;-81
2023/01/05 02:55:17;;;;;;;13.93;10.20;;;7.20;99.90;;;;;;6243162;22;20421;-81
2023/01/05 02:58:01;;;;;;;13.93;10.60;;;7.10;99.90;;;;;;6216398;23;20443;-81
2023/01/05 03:00:35;;;;;;;14.77;11.00;;;7.10;99.90;;;;;;6243005;23;20015;-81
2023/01/05 03:03:20;;;;;;;12.93;9.27;;;7.10;99.90;;;;;;6243106;23;19997;-81
2023/01/05 03:05:52;;;;;;;11.60;9.52;;;7.10;99.90;;;;;;6243194;23;20000;-81
2023/01/05 03:08:23;;;;;;;13.05;9.25;;;7.10;99.90;;;;;;6243308;23;20475;-81
2023/01/05 03:13:53;;;;;;;11.50;9.07;;;7.20;99.90;;;;;;6242977;22;20019;-81
2023/01/05 03:16:33;;;;;;;11.55;9.00;;;7.20;99.90;;;;;;6243119;22;20062;-81
2023/01/05 03:35:40;;;;;;;12.73;8.68;;;7.20;99.90;;;;;;6244978;22;20470;-81
2023/01/05 03:38:12;;;;;;;13.63;9.52;;;7.20;99.90;;;;;;6217871;23;20008;-81
2023/01/05 03:40:38;;;;;;;11.10;9.15;;;7.20;99.90;;;;;;6244766;23;20000;-81
2023/01/05 03:43:05;;;;;;;12.10;9.73;;;7.20;99.90;;;;;;6217919;23;20051;-81
2023/01/05 03:45:42;;;;;;;11.50;9.18;;;7.10;99.90;;;;;;6218016;23;20000;-81
2023/01/05 03:48:07;;;;;;;12.70;9.45;;;7.10;99.90;;;;;;6244766;22;20007;-81
2023/01/05 03:50:35;;;;;;;11.13;9.77;;;7.10;99.90;;;;;;6244553;22;20008;-81
2023/01/05 03:53:00;;;;;;;12.93;9.38;;;7.10;99.90;;;;;;6244730;22;20000;-81
2023/01/05 03:55:26;;;;;;;12.70;9.68;;;7.10;99.90;;;;;;6244499;22;20062;-81
2023/01/05 03:57:52;;;;;;;14.48;10.50;;;7.10;99.90;;;;;;6244721;23;20027;-81
2023/01/05 04:00:19;;;;;;;12.65;9.95;;;7.00;99.90;;;;;;6217539;23;20432;-81
2023/01/05 04:02:45;;;;;;;12.68;9.48;;;7.00;99.90;;;;;;6244548;22;20134;-81
2023/01/05 04:05:11;;;;;;;14.10;10.52;;;7.00;99.90;;;;;;6217671;23;20000;-81
2023/01/05 04:07:36;;;;;;;13.23;10.48;;;7.00;99.90;;;;;;6244653;23;19996;-81
2023/01/05 04:10:05;;;;;;;14.88;10.88;;;7.00;99.90;;;;;;6244538;22;20070;-81
2023/01/05 04:12:31;;;;;;;12.35;10.00;;;6.90;99.90;;;;;;6217504;23;20008;-81
2023/01/05 04:14:57;;;;;;;11.38;9.20;;;6.90;99.90;;;;;;6217573;23;20008;-80
2023/01/05 04:17:22;;;;;;;11.95;9.13;;;6.90;99.90;;;;;;6217638;22;20432;-81
2023/01/05 04:19:48;;;;;;;11.70;9.68;;;6.90;99.90;;;;;;6244450;22;20004;-80
2023/01/05 04:22:14;;;;;;;11.68;9.60;;;6.80;99.90;;;;;;6244343;22;20026;-81
2023/01/05 04:24:39;;;;;;;10.75;9.57;;;6.70;99.90;;;;;;6217163;23;20380;-81
2023/01/05 04:27:05;;;;;;;11.73;9.05;;;6.60;99.90;;;;;;6217436;22;20388;-81
2023/01/05 04:29:31;;;;;;;10.55;8.55;;;6.60;99.90;;;;;;6212323;23;20021;-80
2023/01/05 04:31:56;;;;;;;14.60;10.00;;;6.60;99.90;;;;;;6214026;23;20518;-81
2023/01/05 04:34:22;;;;;;;14.25;8.90;;;6.60;99.90;;;;;;6212236;23;20004;-81
2023/01/05 04:36:48;;;;;;;12.10;8.75;;;6.50;99.90;;;;;;6212305;23;20528;-81
2023/01/05 04:39:14;;;;;;;11.55;8.50;;;6.50;99.90;;;;;;6213807;23;20165;-81
2023/01/05 04:41:40;;;;;;;16.20;9.13;;;6.60;99.90;;;;;;6213949;23;20000;-81
2023/01/05 04:44:06;;;;;;;10.93;8.55;;;6.60;99.90;;;;;;6213768;23;20008;-81
2023/01/05 04:46:32;;;;;;;12.73;8.63;;;6.60;99.90;;;;;;6213634;23;20047;-81
2023/01/05 04:48:57;;;;;;;10.75;8.60;;;6.60;99.90;;;;;;6212150;23;20051;-81
2023/01/05 04:51:23;;;;;;;11.15;8.77;;;6.60;99.90;;;;;;6213521;23;20345;-81
2023/01/05 04:53:49;;;;;;;11.85;8.18;;;6.60;99.90;;;;;;6213852;23;20007;-81
2023/01/05 04:56:15;;;;;;;12.05;8.52;;;6.60;99.90;;;;;;6213743;23;19997;-81
2023/01/05 04:58:41;;;;;;;10.43;8.15;;;6.60;99.90;;;;;;6213853;23;20024;-80
2023/01/05 05:01:07;;;;;;;15.35;9.10;;;6.70;99.90;;;;;;6213618;23;20055;-80
2023/01/05 05:03:33;;;;;;;13.90;9.75;;;6.70;99.90;;;;;;6213670;23;20357;-80
2023/01/05 05:05:59;;;;;;;11.85;9.48;;;6.60;99.90;;;;;;6213741;23;20433;-80
2023/01/05 05:08:24;;;;;;;14.95;9.68;;;6.60;99.90;;;;;;6213737;23;20005;-80
2023/01/05 05:10:50;;;;;;;11.23;9.32;;;6.60;99.90;;;;;;6213430;23;20007;-80
2023/01/05 05:13:16;;;;;;;12.00;8.75;;;6.70;99.90;;;;;;6211995;23;20004;-80
2023/01/05 05:15:43;;;;;;;12.23;9.32;;;6.70;99.90;;;;;;6213714;23;20001;-81
2023/01/05 05:18:09;;;;;;;12.48;8.82;;;6.70;99.90;;;;;;6213586;23;20000;-81
2023/01/05 05:20:36;;;;;;;10.43;8.57;;;6.70;99.90;;;;;;6213530;23;20028;-81
2023/01/05 05:23:02;;;;;;;11.48;8.50;;;6.60;99.90;;;;;;6211539;23;20066;-81
2023/01/05 05:25:27;;;;;;;10.75;8.18;;;6.60;99.90;;;;;;6213312;23;20001;-80
2023/01/05 05:27:53;;;;;;;10.85;7.80;;;6.50;99.90;;;;;;6213709;23;20007;-81
2023/01/05 05:30:19;;;;;;;9.95;6.82;;;6.50;99.90;;;;;;6211817;23;20017;-81
2023/01/05 05:32:44;;;;;;;10.43;8.05;;;6.60;99.90;;;;;;6211797;23;20009;-81
2023/01/05 05:35:10;;;;;;;8.82;7.30;;;6.60;99.90;;;;;;6213530;23;20001;-81
2023/01/05 05:37:36;;;;;;;13.60;8.18;;;6.60;99.90;;;;;;6213657;23;20005;-81
2023/01/05 05:40:02;;;;;;;9.05;7.25;;;6.60;99.90;;;;;;6213314;23;20001;-81
2023/01/05 05:42:28;;;;;;;9.32;8.23;;;6.50;99.90;;;;;;6213436;23;20000;-81
2023/01/05 05:44:53;;;;;;;10.07;7.38;;;6.50;99.90;;;;;;6211857;23;20012;-80
2023/01/05 05:47:19;;;;;;;11.15;8.43;;;6.50;99.90;;;;;;6213372;23;20482;-80
2023/01/05 05:49:45;;;;;;;10.25;7.85;;;6.40;99.90;;;;;;6211760;23;20329;-81
2023/01/05 05:52:10;;;;;;;11.27;7.93;;;6.40;99.90;;;;;;6213367;23;19992;-81
2023/01/05 05:54:36;;;;;;;7.80;6.78;;;6.40;99.90;;;;;;6213310;23;20432;-81
2023/01/05 05:57:02;;;;;;;6.53;5.68;;;6.40;99.90;;;;;;6213066;23;20059;-81
2023/01/05 05:59:27;;;;;;;7.80;6.15;;;6.30;99.90;;;;;;6211774;23;20015;-81
2023/01/05 06:01:53;;;;;;;7.13;6.43;;;6.40;99.90;;;;;;6213274;23;20013;-81
2023/01/05 06:04:19;;;;;;;5.78;5.20;;;6.50;99.90;;;;;;6211791;23;20023;-81
2023/01/05 06:06:44;;;;;;;8.05;5.55;;;6.50;99.90;;;;;;6211804;23;20455;-80
2023/01/05 06:09:10;;;;;;;5.85;5.15;;;6.50;99.90;;;;;;6211656;23;20000;-81
2023/01/05 06:11:36;;;;;;;8.88;6.30;;;6.50;99.90;;;;;;6211772;23;20424;-81
2023/01/05 06:14:01;;;;;;;7.63;6.15;;;6.50;99.90;;;;;;6213270;23;20008;-80
2023/01/05 06:16:27;;;;;;;6.70;5.88;;;6.50;99.90;;;;;;6210864;23;20013;-80
2023/01/05 06:18:53;;;;;;;8.48;5.93;;;6.50;99.90;;;;;;6212558;23;20444;-80
2023/01/05 06:21:20;;;;;;;8.70;5.80;;;6.60;99.90;;;;;;6214902;23;20004;-80
2023/01/05 06:23:46;;;;;;;8.57;5.90;;;6.60;99.90;;;;;;6215273;23;20071;-80
2023/01/05 06:26:12;;;;;;;5.78;5.28;;;6.50;99.90;;;;;;6215227;23;20433;-80
2023/01/05 06:28:38;;;;;;;7.38;6.07;;;6.50;99.90;;;;;;6216207;23;20005;-80
2023/01/05 06:31:04;;;;;;;7.97;6.75;;;6.30;99.90;;;;;;6243650;22;20043;-76
2023/01/05 06:33:29;;;;;;;8.52;7.10;;;6.30;99.90;;;;;;6239292;22;20007;-75
2023/01/05 06:35:57;;;;;;;9.70;8.00;;;6.30;99.90;;;;;;6238827;22;20091;-75
2023/01/05 06:38:23;;;;;;;9.25;8.20;;;6.30;99.90;;;;;;6239023;23;20429;-75
2023/01/05 06:40:49;;;;;;;9.15;8.15;;;6.40;99.90;;;;;;6212048;23;20003;-75
2023/01/05 06:43:18;;;;;;;10.90;7.55;;;6.40;99.90;;;;;;6239949;22;20488;-75
2023/01/05 06:45:43;;;;;;;11.18;8.07;;;6.40;99.90;;;;;;6239964;23;20020;-75
2023/01/05 06:48:09;;;;;;;8.07;7.28;;;6.40;99.90;;;;;;6215408;23;20469;-81
2023/01/05 06:50:35;;;;;;;9.40;7.78;;;6.40;99.90;;;;;;6215367;23;20066;-81
2023/01/05 06:53:01;;;;;;;9.32;8.15;;;6.50;99.90;;;;;;6243045;23;20004;-80
2023/01/05 06:55:27;;;;;;;9.45;8.23;;;6.40;99.90;;;;;;6242928;22;20008;-81
2023/01/05 06:57:53;;;;;;;10.43;8.32;;;6.40;99.90;;;;;;6243206;22;19996;-80
2023/01/05 07:00:19;;;;;;;10.10;8.25;;;6.40;99.90;;;;;;6243328;23;20007;-81
2023/01/05 07:02:45;;;;;;;8.32;7.38;;;6.40;99.90;;;;;;6244312;23;19996;-81
2023/01/05 07:05:11;;;;;;;10.13;7.45;;;6.40;99.90;;;;;;6244625;22;20062;-81
2023/01/05 07:07:37;;;;;;;8.35;7.45;;;6.40;99.90;;;;;;6243926;22;20001;-81
2023/01/05 07:10:03;;;;;;;7.80;6.97;;;6.40;99.90;;;;;;6245424;23;20000;-81
2023/01/05 07:12:29;;;;;;;8.85;7.47;;;6.40;99.90;;;;;;6218768;23;20310;-80
2023/01/05 07:14:54;;;;;;;11.60;7.70;;;6.40;99.90;;;;;;6245384;22;20054;-80
2023/01/05 07:17:20;;;;;;;11.00;7.45;;;6.50;99.90;;;;;;6245603;22;20405;-81
2023/01/05 07:19:46;;;;;;;8.73;7.30;;;6.50;99.90;;;;;;6245525;22;20004;-81
2023/01/05 07:22:11;;;;;;;9.10;7.55;;;6.60;99.90;;;;;;6245385;22;20003;-81
2023/01/05 07:24:37;;;;;;;7.75;6.47;;;6.60;99.90;;;;;;6245076;22;20073;-81
2023/01/05 07:27:03;;;;;;;9.00;7.55;;;6.50;99.90;;;;;;6245675;22;20064;-81
2023/01/05 07:29:29;;;;;;;8.65;7.25;;;6.50;99.90;;;;;;6246879;22;20047;-81
2023/01/05 07:31:54;;;;;;;10.13;8.07;;;6.60;99.90;;;;;;6220151;23;20321;-81
2023/01/05 07:34:21;;;;;;;11.45;8.50;;;6.60;99.90;;;;;;6247109;22;20428;-80
2023/01/05 07:36:48;;;;;;;10.32;8.13;;;6.60;99.90;;;;;;6247115;22;20004;-80
2023/01/05 07:39:18;;;;;;;11.07;8.15;;;6.60;99.90;;;;;;6219994;23;20035;-80
2023/01/05 07:41:44;;;;;;;10.50;8.40;;;6.70;99.90;;;;;;6246926;22;20463;-80
2023/01/05 07:44:10;;;;;;;9.70;8.52;;;6.70;99.90;;;;;;6247099;22;20000;-80
2023/01/05 07:46:35;;;;;;;13.38;9.30;;;6.70;99.90;;;;;;6247119;22;20000;-80
2023/01/05 07:49:01;;;;;;;11.82;9.05;;;6.70;99.90;;;;;;6246856;22;19996;-80
2023/01/05 07:51:27;;;;;;;12.75;9.00;;;6.80;99.90;;;;;;6247054;22;20036;-80
2023/01/05 07:53:54;;;;;;;14.05;8.90;;;6.80;99.90;;;;;;6219729;23;20053;-80
2023/01/05 07:56:20;;;;;;;13.70;9.07;;;6.80;99.90;;;;;;6246213;22;20000;-80
2023/01/05 07:58:45;;;;;;;9.43;7.95;;;6.80;99.90;;;;;;6219477;23;20007;-80
2023/01/05 08:01:13;;;;;;;12.98;9.18;;;6.90;99.90;;;;;;6246655;22;20079;-80
2023/01/05 08:03:39;;;;;;;11.40;9.98;;;6.90;99.90;;;;;;6245571;22;20020;-80
2023/01/05 08:06:11;;;;;;;12.82;10.68;;;6.80;99.90;;;;;;6219219;23;20015;-80
2023/01/05 08:08:37;;;;;;;10.25;8.85;;;6.80;99.90;;;;;;6245613;22;20387;-80
2023/01/05 08:11:05;;;;;;;12.07;9.23;;;6.80;99.90;;;;;;6245516;22;20076;-80
2023/01/05 08:16:15;;;;;;;11.88;9.68;;;6.90;99.90;;;;;;6245742;22;20016;-80
2023/01/05 08:18:40;;;;;;;13.63;9.73;;;7.00;99.90;;;;;;6218887;23;20004;-80
2023/01/05 08:21:07;;;;;;;11.30;8.75;;;7.10;99.90;;;;;;6245887;22;20075;-80
2023/01/05 08:23:33;;;;;;;11.45;9.85;;;7.10;99.90;;;;;;6245131;22;20000;-80
2023/01/05 08:26:05;;;;;;;15.35;10.25;;;7.20;99.90;;;;;;6217394;22;20560;-80
2023/01/05 08:28:31;;;;;;;18.42;12.43;;;7.20;99.90;;;;;;6243524;23;20076;-79
2023/01/05 08:31:01;;;;;;;25.05;15.63;;;7.20;99.90;;;;;;6243374;23;20032;-80
2023/01/05 08:33:27;;;;;;;15.45;11.93;;;7.30;99.90;;;;;;6244245;22;20011;-80
2023/01/05 08:35:53;;;;;;;14.65;11.10;;;7.30;99.90;;;;;;6242820;23;20011;-80
2023/01/05 08:38:21;;;;;;;22.45;16.08;;;7.30;99.90;;;;;;6216943;23;20012;-80
2023/01/05 08:40:47;;;;;;;20.63;16.38;;;7.40;99.90;;;;;;6244032;22;20416;-80
2023/01/05 08:43:13;;;;;;;17.85;14.38;;;7.40;99.90;;;;;;6216459;23;20028;-80
2023/01/05 08:45:38;;;;;;;16.77;13.10;;;7.50;99.90;;;;;;6244195;22;20046;-81
2023/01/05 08:48:04;;;;;;;18.30;12.45;;;7.60;99.90;;;;;;6243978;22;20000;-81
2023/01/05 08:50:30;;;;;;;16.77;12.45;;;7.60;99.90;;;;;;6243096;22;20008;-80
2023/01/05 08:52:57;;;;;;;18.30;12.73;;;7.70;99.90;;;;;;6244103;22;19996;-80
2023/01/05 08:55:23;;;;;;;22.95;14.77;;;7.80;99.90;;;;;;6242988;22;20585;-80
2023/01/05 08:57:48;;;;;;;18.25;13.50;;;7.80;99.90;;;;;;6243445;22;20027;-80
2023/01/05 09:00:20;;;;;;;16.35;13.20;;;8.00;99.90;;;;;;6243516;22;20027;-80
2023/01/05 09:02:49;;;;;;;17.80;13.00;;;8.00;99.90;;;;;;6241695;22;20046;-80
2023/01/05 09:05:15;;;;;;;20.90;14.98;;;8.10;99.90;;;;;;6213334;23;20004;-81
2023/01/05 09:07:41;;;;;;;22.58;15.25;;;8.10;99.90;;;;;;6241919;23;20024;-81
2023/01/05 09:10:08;;;;;;;20.58;14.60;;;8.20;99.90;;;;;;6241728;22;20015;-80
2023/01/05 09:12:37;;;;;;;21.48;15.70;;;8.30;99.90;;;;;;6241659;22;20016;-81
2023/01/05 09:15:04;;;;;;;25.42;16.27;;;8.30;99.90;;;;;;6242662;23;20007;-79
2023/01/05 09:17:31;;;;;;;22.75;17.30;;;8.40;99.90;;;;;;6245978;22;20004;-80
2023/01/05 09:19:56;;;;;;;23.00;16.15;;;8.50;99.90;;;;;;6246088;23;20000;-80
2023/01/05 09:22:22;;;;;;;23.15;17.08;;;8.60;99.90;;;;;;6219115;22;20011;-80
2023/01/05 09:24:48;;;;;;;22.67;17.40;;;8.60;99.90;;;;;;6246018;22;19992;-80
2023/01/05 09:27:14;;;;;;;23.63;16.92;;;8.70;99.90;;;;;;6246162;22;20333;-80
2023/01/05 09:29:39;;;;;;;25.02;17.67;;;8.70;99.90;;;;;;6246012;23;20018;-80
2023/01/05 09:32:06;;;;;;;26.17;18.00;;;8.70;99.90;;;;;;6245994;22;20004;-82
2023/01/05 09:34:32;;;;;;;23.92;17.48;;;8.70;99.90;;;;;;6219191;23;20005;-82
2023/01/05 09:36:58;;;;;;;24.77;17.80;;;8.70;99.90;;;;;;6246010;22;20010;-82
2023/01/05 09:39:24;;;;;;;25.17;17.80;;;8.80;99.90;;;;;;6219079;23;20087;-83
2023/01/05 09:41:57;;;;;;;24.55;17.73;;;8.80;99.90;;;;;;6219148;23;20004;-82
2023/01/05 09:44:29;;;;;;;24.27;18.02;;;8.80;99.90;;;;;;6246086;22;20107;-83
2023/01/05 09:47:01;;;;;;;26.47;19.07;;;8.80;99.90;;;;;;6219290;22;20010;-83
2023/01/05 09:49:27;;;;;;;;;;;8.80;99.90;;;;;;6219582;23;20277;-83
2023/01/05 09:52:09;;;;;;;30.92;20.42;;;8.80;99.90;;;;;;6245882;23;19957;-83
2023/01/05 09:54:36;;;;;;;30.65;19.60;;;8.90;99.90;;;;;;6245724;22;20559;-83
2023/01/05 09:57:03;;;;;;;29.02;18.40;;;8.90;99.90;;;;;;6245686;22;20000;-82
2023/01/05 09:59:39;;;;;;;30.55;20.55;;;8.90;99.90;;;;;;6218623;23;20344;-84
2023/01/05 10:02:50;;;;;;;33.30;21.02;;;9.00;99.90;;;;;;6245473;22;20031;-83
2023/01/05 10:05:20;;;;;;;27.88;19.58;;;9.00;99.90;;;;;;6207479;22;20651;-83
2023/01/05 10:07:49;;;;;;;27.95;20.65;;;9.10;99.90;;;;;;6245579;22;20519;-83
2023/01/05 10:10:37;;;;;;;32.97;21.27;;;9.10;99.90;;;;;;6243559;23;20007;-82
2023/01/05 10:13:05;;;;;;;29.33;21.58;;;9.20;99.90;;;;;;6243291;22;20004;-83
2023/01/05 10:15:43;;;;;;;33.50;22.33;;;9.30;99.90;;;;;;6216726;23;20032;-83
2023/01/05 10:18:19;;;;;;;32.42;21.83;;;9.30;99.90;;;;;;6243170;22;20001;-82
2023/01/05 10:21:00;;;;;;;31.05;21.38;;;9.40;99.90;;;;;;6243130;22;20926;-83
2023/01/05 10:23:47;;;;;;;31.10;21.60;;;9.40;99.90;;;;;;6243197;23;20416;-83
2023/01/05 10:26:23;;;;;;;29.00;21.48;;;9.40;99.90;;;;;;6216252;22;20091;-83
2023/01/05 10:29:09;;;;;;;33.10;21.10;;;9.50;99.90;;;;;;6216449;23;20067;-83
2023/01/05 10:31:54;;;;;;;35.88;21.42;;;9.50;99.90;;;;;;6216078;23;20003;-83
2023/01/05 10:34:41;;;;;;;34.17;22.40;;;9.60;99.90;;;;;;6243147;22;20031;-83
2023/01/05 10:37:07;;;;;;;35.25;22.45;;;9.60;99.90;;;;;;6243326;22;20424;-83
2023/01/05 10:39:35;;;;;;;34.38;21.92;;;9.70;99.90;;;;;;6242989;22;20000;-83
2023/01/05 10:42:11;;;;;;;27.95;20.35;;;9.70;99.90;;;;;;6243268;22;19996;-83
2023/01/05 10:44:55;;;;;;;31.05;20.63;;;9.80;99.90;;;;;;6242968;22;19996;-83
2023/01/05 10:47:24;;;;;;;30.92;21.45;;;9.80;99.90;;;;;;6216478;23;20000;-83
2023/01/05 10:49:50;;;;;;;28.70;20.80;;;9.90;99.90;;;;;;6216116;23;20011;-83
2023/01/05 10:52:18;;;;;;;25.25;18.45;;;9.90;99.90;;;;;;6216466;23;20009;-83
2023/01/05 10:54:55;;;;;;;25.42;17.77;;;10.00;99.90;;;;;;6243163;23;20004;-83
2023/01/05 10:57:27;;;;;;;29.00;18.73;;;10.00;99.90;;;;;;6216224;23;20424;-77
2023/01/05 10:59:59;;;;;;;26.15;18.27;;;10.00;99.90;;;;;;6242853;22;20004;-77
2023/01/05 11:02:28;;;;;;;28.05;19.30;;;10.10;99.90;;;;;;6242977;22;20028;-77
2023/01/05 11:04:59;;;;;;;27.75;18.33;;;10.20;99.90;;;;;;6216028;23;20008;-77
2023/01/05 11:07:25;;;;;;;28.58;17.60;;;10.10;99.90;;;;;;6242647;22;20412;-77
2023/01/05 11:09:51;;;;;;;26.48;17.92;;;10.10;99.90;;;;;;6215878;22;20031;-76
2023/01/05 11:12:19;;;;;;;25.73;18.40;;;10.30;99.90;;;;;;6214532;22;20964;-76
2023/01/05 11:14:50;;;;;;;23.40;18.30;;;10.30;99.90;;;;;;6215874;23;20310;-77
2023/01/05 11:17:20;;;;;;;25.17;18.65;;;10.40;99.90;;;;;;6242938;22;20011;-77
2023/01/05 11:19:50;;;;;;;23.60;16.33;;;10.40;99.90;;;;;;6242699;23;20010;-77
2023/01/05 11:22:36;;;;;;;21.08;15.93;;;10.40;99.90;;;;;;6215322;23;20416;-77
2023/01/05 11:25:25;;;;;;;23.23;16.48;;;10.40;99.90;;;;;;6215783;22;20005;-77
2023/01/05 11:28:09;;;;;;;24.98;17.55;;;10.40;99.90;;;;;;6196799;23;20004;-77
2023/01/05 11:30:37;;;;;;;22.83;16.70;;;10.40;99.90;;;;;;6242690;23;20040;-77
2023/01/05 11:33:10;;;;;;;25.17;17.15;;;10.50;99.90;;;;;;6215960;23;20004;-77
2023/01/05 11:35:37;;;;;;;24.42;17.15;;;10.50;99.90;;;;;;6242903;23;20004;-77
2023/01/05 11:38:04;;;;;;;22.27;16.50;;;10.60;99.90;;;;;;6242825;22;20026;-77
2023/01/05 11:40:33;;;;;;;25.63;16.17;;;10.60;99.90;;;;;;6215694;22;20091;-76
2023/01/05 11:42:59;;;;;;;21.40;15.52;;;10.70;99.90;;;;;;6215798;23;20004;-77
2023/01/05 11:45:31;;;;;;;24.52;16.77;;;10.70;99.90;;;;;;6215690;23;20007;-77
2023/01/05 11:48:05;;;;;;;21.55;16.52;;;10.80;99.90;;;;;;6242166;22;20030;-77
2023/01/05 11:50:55;;;;;;;22.73;16.95;;;10.80;99.90;;;;;;6242099;23;20011;-77
2023/01/05 11:53:25;;;;;;;22.70;17.27;;;10.90;99.90;;;;;;6215084;23;20014;-77
2023/01/05 11:56:00;;;;;;;23.08;16.85;;;11.00;99.90;;;;;;6215904;23;20004;-77
2023/01/05 11:58:32;;;;;;;24.40;17.23;;;11.00;99.90;;;;;;6244186;22;20030;-77
2023/01/05 12:01:01;;;;;;;;;;;11.00;99.90;;;;;;6217557;23;20007;-76
2023/01/05 12:04:07;;;;;;;23.05;17.15;;;11.10;99.90;;;;;;6243881;22;19906;-77
2023/01/05 12:07:03;;;;;;;23.58;17.05;;;11.10;99.90;;;;;;6243775;22;20000;-77
2023/01/05 12:09:38;;;;;;;28.08;17.25;;;11.10;99.90;;;;;;6243909;22;20004;-77
2023/01/05 12:12:22;;;;;;;25.58;18.42;;;11.10;99.90;;;;;;6216686;23;20010;-77
2023/01/05 12:15:41;;;;;;;26.95;18.60;;;11.20;99.90;;;;;;6243609;22;20030;-77
2023/01/05 12:18:13;;;;;;;23.38;16.48;;;11.10;99.90;;;;;;6067729;23;20279;-77
2023/01/05 12:20:47;;;;;;;22.13;16.40;;;11.10;99.90;;;;;;6217716;22;20090;-77
2023/01/05 12:23:38;;;;;;;34.35;22.20;;;11.10;99.90;;;;;;6215775;23;20336;-77
2023/01/05 12:26:48;;;;;;;29.15;18.80;;;11.20;99.90;;;;;;6244183;23;20051;-77
2023/01/05 12:29:40;;;;;;;22.67;16.52;;;11.20;99.90;;;;;;6236649;23;20099;-77
2023/01/05 12:32:24;;;;;;;31.30;19.95;;;11.10;99.90;;;;;;6244139;22;20054;-77
2023/01/05 12:35:05;;;;;;;23.65;17.25;;;11.20;99.90;;;;;;6217249;22;20010;-77
2023/01/05 12:38:08;;;;;;;23.00;16.83;;;11.30;99.90;;;;;;6244233;22;20003;-76
2023/01/05 12:40:52;;;;;;;25.08;15.57;;;11.20;99.90;;;;;;6217002;22;20008;-77
2023/01/05 12:43:30;;;;;;;21.98;16.23;;;11.20;99.90;;;;;;6217180;23;20004;-77
2023/01/05 12:46:37;;;;;;;20.08;15.68;;;11.20;99.90;;;;;;6244077;22;20380;-77
2023/01/05 12:49:22;;;;;;;26.17;17.33;;;11.20;99.90;;;;;;6224817;22;20000;-76
2023/01/05 12:52:31;;;;;;;23.27;15.95;;;11.20;99.90;;;;;;6243897;23;20028;-77
2023/01/05 12:55:22;;;;;;;21.08;16.05;;;11.20;99.90;;;;;;6243759;22;20495;-77
2023/01/05 12:57:56;;;;;;;24.10;16.80;;;11.20;99.90;;;;;;6244021;22;20081;-77
2023/01/05 13:00:24;;;;;;;23.95;16.10;;;11.30;99.90;;;;;;6243861;22;20005;-77
2023/01/05 13:03:10;;;;;;;23.65;16.67;;;11.30;99.90;;;;;;6216897;23;20001;-77
2023/01/05 13:06:10;;;;;;;25.17;16.10;;;11.30;99.90;;;;;;6243771;22;20001;-77
2023/01/05 13:08:41;;;;;;;24.63;17.05;;;11.30;99.90;;;;;;6195771;23;20008;-77
2023/01/05 13:11:16;;;;;;;28.52;17.42;;;11.20;99.90;;;;;;6243480;22;20000;-77
2023/01/05 13:14:15;;;;;;;24.25;16.95;;;11.30;99.90;;;;;;6216809;23;20027;-76
2023/01/05 13:16:57;;;;;;;25.42;18.75;;;11.30;99.90;;;;;;6167284;23;20031;-77
2023/01/05 13:19:37;;;;;;;25.02;17.65;;;11.30;99.90;;;;;;6243254;22;20055;-77
2023/01/05 13:22:09;;;;;;;25.02;17.40;;;11.30;99.90;;;;;;6243642;22;20075;-77
2023/01/05 13:24:44;;;;;;;25.63;18.20;;;11.30;99.90;;;;;;6216781;23;20503;-77
2023/01/05 13:27:12;;;;;;;31.45;19.60;;;11.30;99.90;;;;;;6243712;22;20011;-77
2023/01/05 13:29:47;;;;;;;27.95;19.65;;;11.30;99.90;;;;;;6211607;23;20020;-76
2023/01/05 13:32:32;;;;;;;30.08;19.75;;;11.30;99.90;;;;;;6213340;23;20067;-77
2023/01/05 13:35:10;;;;;;;31.85;20.92;;;11.30;99.90;;;;;;6211736;23;20344;-77